Time;durP1;ratioP1;P1;durP2;ratioP2;P2;SDS_P1;SDS_P2;PMS_P1;PMS_P2;Temp;Humidity;BMP_temperature;BMP_pressure;BME280_temperature;BME280_humidity;BME280_pressure;Samples;Min_cycle;Max_cycle;Signal;HPM_P1;HPM_P2
2023/06/01 00:01:57;;;;;;;8.47;5.67;;;;;;;14.46;100.00;96350.28;4989688;28;101942;-60
2023/06/01 00:04:24;;;;;;;8.17;5.23;;;;;;;14.47;100.00;96351.88;4990554;28;102823;-60
2023/06/01 00:06:51;;;;;;;7.17;6.30;;;;;;;14.51;100.00;96355.63;4992922;28;102737;-60
2023/06/01 00:09:18;;;;;;;8.20;6.10;;;;;;;14.55;100.00;96349.44;4993037;28;101910;-60
2023/06/01 00:11:45;;;;;;;5.80;5.30;;;;;;;14.57;100.00;96352.66;4993422;28;102294;-61
2023/06/01 00:14:12;;;;;;;7.03;6.17;;;;;;;14.51;100.00;96353.72;4992275;28;102582;-60
2023/06/01 00:16:40;;;;;;;7.10;6.03;;;;;;;14.48;100.00;96350.78;4996809;28;102153;-60
2023/06/01 00:19:07;;;;;;;6.60;5.80;;;;;;;14.32;100.00;96355.44;4991254;28;105339;-60
2023/06/01 00:21:35;;;;;;;6.17;5.63;;;;;;;14.37;100.00;96354.59;4991581;28;101973;-60
2023/06/01 00:24:02;;;;;;;7.70;6.23;;;;;;;14.35;100.00;96351.41;4993179;28;102574;-61
2023/06/01 00:26:31;;;;;;;6.90;5.97;;;;;;;14.42;100.00;96352.72;4992522;28;102543;-60
2023/06/01 00:28:59;;;;;;;7.07;5.53;;;;;;;14.10;100.00;96354.13;4992382;28;102313;-60
2023/06/01 00:31:26;;;;;;;6.10;5.50;;;;;;;13.72;100.00;96349.44;4992835;28;102826;-60
2023/06/01 00:33:56;;;;;;;6.20;5.60;;;;;;;13.68;100.00;96359.09;4992405;28;103101;-60
2023/06/01 00:36:22;;;;;;;8.20;5.80;;;;;;;13.89;100.00;96360.66;4992723;28;101919;-60
2023/06/01 00:38:50;;;;;;;7.57;5.60;;;;;;;13.91;100.00;96359.28;4996025;28;102373;-60
2023/06/01 00:41:17;;;;;;;6.03;5.53;;;;;;;13.89;100.00;96364.09;4991221;28;101951;-60
2023/06/01 00:43:44;;;;;;;7.03;6.20;;;;;;;13.89;100.00;96350.75;4991380;28;105571;-60
2023/06/01 00:46:14;;;;;;;7.40;5.83;;;;;;;13.82;100.00;96352.09;4990853;28;105471;-60
2023/06/01 00:48:41;;;;;;;6.50;5.90;;;;;;;13.88;100.00;96349.13;4991408;28;101880;-60
2023/06/01 00:51:11;;;;;;;8.90;6.43;;;;;;;13.68;100.00;96345.72;4991104;28;105683;-60
2023/06/01 00:53:38;;;;;;;7.13;5.70;;;;;;;13.78;100.00;96348.34;4990877;28;105522;-60
2023/06/01 00:56:05;;;;;;;6.47;5.87;;;;;;;13.76;100.00;96348.66;4991188;28;101869;-60
2023/06/01 00:58:32;;;;;;;6.50;5.80;;;;;;;13.56;100.00;96345.19;4993888;28;104816;-60
2023/06/01 01:01:01;;;;;;;6.33;5.70;;;;;;;13.31;100.00;96342.56;4991124;28;102306;-60
2023/06/01 01:03:31;;;;;;;7.57;6.00;;;;;;;13.20;100.00;96348.97;4991195;28;105050;-60
2023/06/01 01:06:11;;;;;;;7.30;5.93;;;;;;;13.25;100.00;96343.63;4992020;28;102734;-60
2023/06/01 01:08:52;;;;;;;10.20;6.70;;;;;;;13.42;100.00;96347.59;4992539;28;101696;-60
2023/06/01 01:11:23;;;;;;;7.10;6.40;;;;;;;13.32;100.00;96350.31;4991236;28;105592;-60
2023/06/01 01:13:56;;;;;;;6.80;5.97;;;;;;;13.43;100.00;96351.09;4991246;28;102555;-61
2023/06/01 01:16:28;;;;;;;7.13;5.83;;;;;;;13.37;100.00;96352.16;4989978;28;101829;-60
2023/06/01 01:19:03;;;;;;;7.60;6.00;;;;;;;13.29;100.00;96339.34;4990936;28;105031;-60
2023/06/01 01:21:33;;;;;;;8.60;6.30;;;;;;;13.24;100.00;96347.38;4993814;28;105921;-60
2023/06/01 01:24:23;;;;;;;6.80;6.10;;;;;;;13.22;100.00;96344.16;4992515;28;102295;-61
2023/06/01 01:27:08;;;;;;;6.77;6.17;;;;;;;13.27;100.00;96352.97;4990058;28;106171;-60
2023/06/01 01:29:38;;;;;;;7.70;6.90;;;;;;;13.28;100.00;96346.56;4990604;28;101999;-60
2023/06/01 01:32:07;;;;;;;6.63;5.93;;;;;;;13.12;100.00;96344.97;4990661;28;105552;-60
2023/06/01 01:34:34;;;;;;;7.50;6.73;;;;;;;13.22;100.00;96349.50;4989900;28;104358;-60
2023/06/01 01:37:02;;;;;;;7.20;6.20;;;;;;;13.18;100.00;96345.75;4992107;28;102004;-60
2023/06/01 01:39:30;;;;;;;7.33;6.17;;;;;;;13.24;100.00;96339.38;4990773;28;103882;-60
2023/06/01 01:41:57;;;;;;;8.53;6.80;;;;;;;13.26;100.00;96347.91;4989912;28;105144;-60
2023/06/01 01:44:24;;;;;;;6.67;5.97;;;;;;;13.24;100.00;96342.81;4995465;28;101837;-61
2023/06/01 01:47:04;;;;;;;7.13;6.47;;;;;;;13.10;100.00;96339.09;4991150;28;102579;-60
2023/06/01 01:49:38;;;;;;;7.90;6.70;;;;;;;12.94;100.00;96341.97;4990305;28;102081;-60
2023/06/01 01:52:09;;;;;;;6.93;6.27;;;;;;;12.94;100.00;96344.66;4990495;28;104770;-60
2023/06/01 01:54:39;;;;;;;7.07;6.47;;;;;;;12.90;100.00;96338.22;4991415;28;102582;-60
2023/06/01 01:57:08;;;;;;;6.70;6.03;;;;;;;12.98;100.00;96335.09;4990248;28;102012;-60
2023/06/01 01:59:36;;;;;;;9.70;6.90;;;;;;;12.78;100.00;96343.03;4990226;28;105743;-60
2023/06/01 02:02:05;;;;;;;7.23;6.53;;;;;;;12.54;100.00;96341.94;4989375;28;105684;-60
2023/06/01 02:04:32;;;;;;;6.93;6.20;;;;;;;12.46;100.00;96348.56;4990222;28;101910;-60
2023/06/01 02:07:00;;;;;;;6.40;5.80;;;;;;;12.47;100.00;96347.50;4993024;28;105164;-60
2023/06/01 02:09:32;;;;;;;6.57;5.97;;;;;;;12.53;100.00;96338.44;4990135;28;101775;-60
2023/06/01 02:11:59;;;;;;;7.13;6.07;;;;;;;12.67;100.00;96339.56;4989716;28;105373;-60
2023/06/01 02:14:26;;;;;;;7.57;6.87;;;;;;;12.78;100.00;96335.84;4988971;28;105447;-61
2023/06/01 02:16:53;;;;;;;8.73;6.93;;;;;;;12.67;100.00;96328.88;4990012;28;101908;-60
2023/06/01 02:19:22;;;;;;;6.50;5.90;;;;;;;12.59;100.00;96328.59;4990130;28;105564;-60
2023/06/01 02:21:50;;;;;;;6.10;5.60;;;;;;;12.55;100.00;96333.66;4989343;28;105442;-61
2023/06/01 02:24:17;;;;;;;6.43;5.83;;;;;;;12.52;100.00;96328.03;4990115;28;101984;-60
2023/06/01 02:26:48;;;;;;;7.73;6.03;;;;;;;12.48;100.00;96333.09;4989489;28;104903;-61
2023/06/01 02:29:15;;;;;;;8.20;7.10;;;;;;;12.50;100.00;96336.31;4992174;28;105140;-60
2023/06/01 02:31:42;;;;;;;7.57;6.87;;;;;;;12.48;100.00;96335.78;4989637;28;104873;-60
2023/06/01 02:34:09;;;;;;;8.77;6.90;;;;;;;12.42;100.00;96338.72;4988910;28;106423;-60
2023/06/01 02:36:37;;;;;;;8.00;7.20;;;;;;;12.51;100.00;96335.25;4989459;28;101886;-60
2023/06/01 02:39:04;;;;;;;8.03;6.73;;;;;;;12.41;100.00;96339.75;4989829;28;105590;-61
2023/06/01 02:41:34;;;;;;;7.53;6.70;;;;;;;12.37;100.00;96336.81;4989214;28;104645;-60
2023/06/01 02:44:02;;;;;;;8.20;6.53;;;;;;;12.29;100.00;96339.19;4989612;28;101908;-60
2023/06/01 02:46:29;;;;;;;7.07;6.40;;;;;;;12.31;100.00;96335.19;4989770;28;104920;-60
2023/06/01 02:48:56;;;;;;;8.93;7.83;;;;;;;12.32;100.00;96338.66;4989107;28;105533;-60
2023/06/01 02:51:23;;;;;;;8.87;7.10;;;;;;;12.28;100.00;96333.06;4992911;28;102543;-60
2023/06/01 02:54:03;;;;;;;7.27;6.57;;;;;;;12.22;100.00;96338.63;4988926;28;105363;-60
2023/06/01 02:56:30;;;;;;;7.07;6.37;;;;;;;12.18;100.00;96337.53;4989295;28;101725;-60
2023/06/01 02:59:10;;;;;;;6.97;6.30;;;;;;;12.24;100.00;96336.50;4989205;28;105281;-60
2023/06/01 03:01:43;;;;;;;8.00;6.93;;;;;;;12.02;100.00;96341.22;4988814;28;104999;-61
2023/06/01 03:04:10;;;;;;;11.13;7.43;;;;;;;12.09;100.00;96334.56;4990905;28;101684;-60
2023/06/01 03:06:39;;;;;;;7.93;7.03;;;;;;;12.11;100.00;96331.66;4989123;28;103814;-60
2023/06/01 03:09:43;;;;;;;6.70;6.13;;;;;;;12.12;100.00;96339.41;4988952;28;103574;-60
2023/06/01 03:12:36;;;;;;;7.20;6.13;;;;;;;12.09;100.00;96344.44;4993343;28;101860;-60
2023/06/01 03:15:04;;;;;;;7.07;6.37;;;;;;;12.01;100.00;96342.28;4988295;28;105053;-60
2023/06/01 03:17:31;;;;;;;7.47;6.43;;;;;;;12.01;100.00;96344.94;4989015;28;101903;-60
2023/06/01 03:19:58;;;;;;;7.67;6.97;;;;;;;11.86;100.00;96344.84;4989222;28;105180;-60
2023/06/01 03:22:25;;;;;;;7.70;6.77;;;;;;;11.80;100.00;96346.72;4988444;28;105461;-60
2023/06/01 03:24:54;;;;;;;9.07;8.17;;;;;;;11.85;100.00;96351.25;4989304;28;101924;-60
2023/06/01 03:27:27;;;;;;;7.57;6.83;;;;;;;11.82;100.00;96355.25;4988740;28;105661;-60
2023/06/01 03:29:54;;;;;;;8.03;7.13;;;;;;;11.86;100.00;96360.84;4988080;28;105332;-60
2023/06/01 03:32:21;;;;;;;7.63;6.77;;;;;;;11.84;100.00;96357.66;4988801;28;101763;-60
2023/06/01 03:34:49;;;;;;;8.33;7.53;;;;;;;11.92;100.00;96359.81;4991550;28;104415;-60
2023/06/01 03:37:16;;;;;;;7.83;7.10;;;;;;;11.94;100.00;96366.47;4988856;28;101962;-60
2023/06/01 03:39:43;;;;;;;8.00;7.30;;;;;;;12.05;100.00;96373.47;4987765;28;103934;-60
2023/06/01 03:42:14;;;;;;;9.50;7.30;;;;;;;12.10;100.00;96364.72;4988156;28;105145;-60
2023/06/01 03:44:41;;;;;;;9.27;7.67;;;;;;;12.17;100.00;96376.75;4988907;28;101927;-60
2023/06/01 03:47:09;;;;;;;7.43;6.83;;;;;;;12.07;100.00;96379.38;4988741;28;104007;-60
2023/06/01 03:49:36;;;;;;;7.03;6.33;;;;;;;12.10;100.00;96372.72;4988137;28;104126;-60
2023/06/01 03:52:07;;;;;;;9.83;7.77;;;;;;;12.08;100.00;96378.28;4988709;28;101818;-60
2023/06/01 03:54:34;;;;;;;7.33;6.63;;;;;;;11.84;100.00;96368.31;4988488;28;105148;-60
2023/06/01 03:57:02;;;;;;;7.57;6.87;;;;;;;11.98;100.00;96374.75;4991439;28;104945;-61
2023/06/01 03:59:30;;;;;;;8.17;7.00;;;;;;;12.01;100.00;96369.75;4988606;28;106511;-60
2023/06/01 04:01:57;;;;;;;6.90;6.30;;;;;;;12.12;100.00;96366.06;4987859;28;105028;-60
2023/06/01 04:04:27;;;;;;;8.00;7.30;;;;;;;12.20;100.00;96370.06;4988568;28;101922;-60
2023/06/01 04:07:00;;;;;;;8.00;7.23;;;;;;;12.12;100.00;96371.38;4988327;28;105005;-60
2023/06/01 04:09:28;;;;;;;7.93;6.83;;;;;;;12.17;100.00;96366.09;4987878;28;105375;-60
2023/06/01 04:11:57;;;;;;;8.77;7.57;;;;;;;12.28;100.00;96365.06;4988526;28;102004;-60
2023/06/01 04:14:24;;;;;;;7.67;6.87;;;;;;;12.32;100.00;96368.00;4987944;28;103873;-60
2023/06/01 04:16:52;;;;;;;7.90;7.20;;;;;;;12.49;100.00;96365.91;4987695;28;105384;-60
2023/06/01 04:19:19;;;;;;;8.97;8.07;;;;;;;12.57;100.00;96362.72;4992994;28;101835;-60
2023/06/01 04:21:49;;;;;;;10.20;8.70;;;;;;;12.69;100.00;96366.78;4987655;28;105273;-60
2023/06/01 04:24:17;;;;;;;9.77;8.57;;;;;;;12.60;100.00;96368.34;4988520;28;102179;-60
2023/06/01 04:26:44;;;;;;;10.60;9.37;;;;;;;12.76;100.00;96363.84;4988551;28;104794;-60
2023/06/01 04:29:11;;;;;;;11.43;9.60;;;;;;;12.98;100.00;96367.91;4987586;28;104981;-60
2023/06/01 04:31:39;;;;;;;11.43;9.20;;;;;;;12.99;100.00;96374.06;4988151;28;101803;-60
2023/06/01 04:34:07;;;;;;;9.70;8.70;;;;;;;13.15;100.00;96371.16;4988495;28;105726;-60
2023/06/01 04:36:39;;;;;;;9.23;8.33;;;;;;;13.31;100.00;96369.25;4987304;28;106031;-61
2023/06/01 04:39:07;;;;;;;12.60;9.43;;;;;;;13.44;100.00;96374.06;4988072;28;101913;-60
2023/06/01 04:41:36;;;;;;;10.37;9.13;;;;;;;13.53;100.00;96373.25;4991062;28;104418;-60
2023/06/01 04:44:05;;;;;;;11.27;9.40;;;;;;;13.57;100.00;96378.88;4988234;28;101698;-60
2023/06/01 04:46:34;;;;;;;12.17;9.63;;;;;;;13.51;100.00;96371.94;4988165;28;105297;-61
2023/06/01 04:49:02;;;;;;;11.03;9.30;;;;;;;13.66;100.00;96377.25;4987568;28;105832;-60
2023/06/01 04:51:33;;;;;;;10.70;9.03;;;;;;;13.89;100.00;96377.47;4988264;28;101927;-60
2023/06/01 04:54:00;;;;;;;12.57;8.90;;;;;;;13.99;100.00;96371.28;4974793;28;105262;-60
2023/06/01 04:56:28;;;;;;;13.57;9.53;;;;;;;13.94;100.00;96369.44;4990717;28;103880;-60
2023/06/01 04:58:57;;;;;;;12.10;9.00;;;;;;;14.08;100.00;96369.66;4992737;28;101773;-60
2023/06/01 05:01:29;;;;;;;11.03;8.80;;;;;;;14.22;100.00;96368.06;4991232;28;104901;-60
2023/06/01 05:03:56;;;;;;;9.70;8.70;;;;;;;14.26;100.00;96371.75;4993541;28;102067;-60
2023/06/01 05:06:24;;;;;;;18.50;9.03;;;;;;;14.32;100.00;96365.31;4990946;28;105234;-60
2023/06/01 05:08:53;;;;;;;11.03;9.10;;;;;;;14.26;100.00;96367.22;4990656;28;105282;-60
2023/06/01 05:11:21;;;;;;;14.63;9.40;;;;;;;14.18;100.00;96365.06;4991097;28;101865;-60
2023/06/01 05:13:48;;;;;;;13.27;9.20;;;;;;;14.19;100.00;96360.53;4992334;28;102369;-60
2023/06/01 05:16:15;;;;;;;12.33;8.57;;;;;;;14.38;100.00;96359.69;4990429;28;105702;-60
2023/06/01 05:18:42;;;;;;;11.13;8.37;;;;;;;14.59;100.00;96357.69;4990788;28;101933;-60
2023/06/01 05:21:10;;;;;;;10.23;8.37;;;;;;;14.57;100.00;96358.00;4990887;28;104839;-60
2023/06/01 05:23:37;;;;;;;10.87;8.57;;;;;;;14.56;100.00;96360.94;4993620;28;105536;-60
2023/06/01 05:26:06;;;;;;;10.17;8.30;;;;;;;14.61;100.00;96358.25;4991026;28;105092;-60
2023/06/01 05:28:35;;;;;;;12.67;9.37;;;;;;;14.87;100.00;96367.72;4990168;28;105350;-60
2023/06/01 05:31:03;;;;;;;11.93;8.77;;;;;;;15.04;100.00;96355.53;4990502;28;102121;-60
2023/06/01 05:33:33;;;;;;;9.87;8.33;;;;;;;15.09;100.00;96365.44;4990618;28;104790;-60
2023/06/01 05:36:00;;;;;;;11.93;9.13;;;;;;;15.06;100.00;96365.97;4991548;28;103010;-60
2023/06/01 05:38:28;;;;;;;10.53;8.80;;;;;;;15.21;100.00;96357.84;4990543;28;101824;-60
2023/06/01 05:40:55;;;;;;;9.83;8.17;;;;;;;15.30;100.00;96356.97;4990449;28;103828;-61
2023/06/01 05:43:23;;;;;;;11.20;7.97;;;;;;;15.49;100.00;96359.78;4989762;28;105090;-60
2023/06/01 05:45:51;;;;;;;10.60;7.77;;;;;;;15.54;100.00;96359.75;4977415;28;101972;-61
2023/06/01 05:48:18;;;;;;;10.10;7.63;;;;;;;15.75;100.00;96369.97;4989636;28;105815;-60
2023/06/01 05:50:50;;;;;;;9.43;7.87;;;;;;;15.74;100.00;96362.22;4990798;28;102131;-61
2023/06/01 05:53:17;;;;;;;10.30;7.87;;;;;;;15.74;100.00;96362.22;4990084;28;103365;-61
2023/06/01 05:55:44;;;;;;;10.70;8.57;;;;;;;15.84;100.00;96362.94;4989566;28;105618;-60
2023/06/01 05:58:12;;;;;;;10.97;7.87;;;;;;;16.19;100.00;96359.84;4990133;28;101979;-60
2023/06/01 06:00:41;;;;;;;8.87;7.37;;;;;;;16.40;100.00;96376.56;4990339;28;105211;-60
2023/06/01 06:03:08;;;;;;;9.10;7.53;;;;;;;16.43;100.00;96365.25;4990160;28;102535;-60
2023/06/01 06:05:35;;;;;;;9.80;7.63;;;;;;;16.46;100.00;96357.41;4991485;28;102202;-60
2023/06/01 06:08:02;;;;;;;10.27;7.40;;;;;;;16.68;100.00;96362.25;4993427;28;102301;-60
2023/06/01 06:10:29;;;;;;;8.23;7.50;;;;;;;16.63;100.00;96356.94;4991399;28;101928;-60
2023/06/01 06:12:56;;;;;;;10.70;7.57;;;;;;;16.67;100.00;96364.13;4990077;28;103860;-61
2023/06/01 06:15:23;;;;;;;9.53;7.70;;;;;;;16.81;100.00;96366.88;4990778;28;103034;-61
2023/06/01 06:17:52;;;;;;;8.67;7.77;;;;;;;17.01;100.00;96363.91;4989835;28;101944;-61
2023/06/01 06:20:21;;;;;;;8.97;7.53;;;;;;;17.14;100.00;96366.69;4990106;28;104009;-61
2023/06/01 06:22:50;;;;;;;9.70;7.53;;;;;;;16.94;100.00;96361.59;4990457;28;102853;-61
2023/06/01 06:25:17;;;;;;;10.27;8.03;;;;;;;17.03;100.00;96369.78;4991169;28;101810;-61
2023/06/01 06:27:45;;;;;;;13.27;7.47;;;;;;;17.21;100.00;96377.03;4972966;28;105790;-61
2023/06/01 06:30:12;;;;;;;8.97;7.40;;;;;;;17.42;100.00;96373.78;4994116;28;102795;-61
2023/06/01 06:32:39;;;;;;;10.33;7.67;;;;;;;17.58;100.00;96371.63;4989681;28;103813;-61
2023/06/01 06:35:12;;;;;;;10.33;7.73;;;;;;;17.59;100.00;96378.59;4990693;28;101914;-61
2023/06/01 06:37:39;;;;;;;10.23;7.30;;;;;;;17.56;100.00;96369.22;4973766;28;101974;-61
2023/06/01 06:40:08;;;;;;;10.03;7.53;;;;;;;17.91;100.00;96365.13;4989606;28;105222;-61
2023/06/01 06:42:35;;;;;;;8.87;7.97;;;;;;;17.90;100.00;96368.94;4989182;28;105647;-61
2023/06/01 06:45:02;;;;;;;13.07;7.83;;;;;;;17.88;100.00;96366.53;4989708;28;101931;-61
2023/06/01 06:47:29;;;;;;;10.53;7.67;;;;;;;17.90;100.00;96371.63;4989656;28;104748;-61
2023/06/01 06:49:56;;;;;;;11.37;7.70;;;;;;;18.02;100.00;96377.31;4988758;28;105491;-61
2023/06/01 06:52:24;;;;;;;9.10;7.37;;;;;;;18.27;100.00;96380.34;4992892;28;101783;-61
2023/06/01 06:54:51;;;;;;;10.23;8.00;;;;;;;18.55;100.00;96373.06;4988904;28;104211;-61
2023/06/01 06:57:17;;;;;;;11.83;8.67;;;;;;;18.39;100.00;96377.16;4989680;28;102040;-61
2023/06/01 06:59:45;;;;;;;10.87;7.40;;;;;;;18.94;100.00;96376.00;4989543;28;104680;-61
2023/06/01 07:02:11;;;;;;;9.30;7.83;;;;;;;19.10;100.00;96377.25;4988222;28;105013;-61
2023/06/01 07:04:40;;;;;;;9.30;7.83;;;;;;;19.37;100.00;96379.91;4990610;28;101814;-61
2023/06/01 07:07:07;;;;;;;10.13;7.57;;;;;;;19.54;100.00;96374.63;4973041;28;104867;-60
2023/06/01 07:09:36;;;;;;;9.00;6.97;;;;;;;19.71;100.00;96369.34;4988595;28;105807;-61
2023/06/01 07:12:02;;;;;;;10.57;8.00;;;;;;;19.72;100.00;96370.97;4992820;28;101955;-60
2023/06/01 07:14:29;;;;;;;9.17;7.73;;;;;;;19.59;100.00;96378.00;4987283;28;105083;-60
2023/06/01 07:16:56;;;;;;;10.60;7.83;;;;;;;19.27;100.00;96377.44;4989021;28;102077;-60
2023/06/01 07:19:23;;;;;;;8.83;7.87;;;;;;;19.32;100.00;96380.81;4989186;28;105185;-60
2023/06/01 07:21:50;;;;;;;8.80;7.83;;;;;;;19.20;100.00;96371.66;4988510;28;105669;-60
2023/06/01 07:24:19;;;;;;;10.30;7.60;;;;;;;19.25;100.00;96383.16;4989093;28;101934;-60
2023/06/01 07:26:51;;;;;;;9.27;7.87;;;;;;;19.31;100.00;96379.25;4989024;28;104786;-61
2023/06/01 07:29:17;;;;;;;11.10;8.33;;;;;;;19.38;100.00;96378.78;4988104;28;105496;-60
2023/06/01 07:31:45;;;;;;;10.33;8.73;;;;;;;19.26;100.00;96382.06;4988836;28;101984;-60
2023/06/01 07:34:12;;;;;;;11.57;8.57;;;;;;;19.13;100.00;96376.66;5008345;28;105291;-60
2023/06/01 07:36:40;;;;;;;8.70;7.80;;;;;;;19.39;100.00;96381.19;4989011;28;101868;-60
2023/06/01 07:39:08;;;;;;;11.83;9.10;;;;;;;19.26;100.00;96381.25;4988926;28;105288;-60
2023/06/01 07:41:35;;;;;;;10.40;8.57;;;;;;;19.40;100.00;96377.38;4988269;28;105475;-60
2023/06/01 07:44:04;;;;;;;10.03;8.57;;;;;;;19.90;100.00;96370.72;4989769;28;101876;-60
2023/06/01 07:46:31;;;;;;;11.73;8.10;;;;;;;19.89;100.00;96373.75;4990041;28;102314;-60
2023/06/01 07:48:58;;;;;;;10.33;8.13;;;;;;;20.20;100.00;96377.25;4989627;28;102672;-60
2023/06/01 07:51:25;;;;;;;11.43;7.90;;;;;;;20.00;100.00;96365.06;4988774;28;101946;-60
2023/06/01 07:53:55;;;;;;;9.73;8.50;;;;;;;20.19;100.00;96372.97;4988636;28;105040;-60
2023/06/01 07:56:22;;;;;;;14.17;8.60;;;;;;;20.66;100.00;96372.97;4991393;28;105636;-60
2023/06/01 07:58:49;;;;;;;10.93;8.67;;;;;;;20.64;100.00;96369.00;4988272;28;105678;-60
2023/06/01 08:01:18;;;;;;;11.10;8.33;;;;;;;20.53;100.00;96373.09;4987811;28;106163;-60
2023/06/01 08:03:45;;;;;;;11.47;8.43;;;;;;;20.65;100.00;96373.31;4988533;28;101997;-60
2023/06/01 08:06:13;;;;;;;9.40;7.80;;;;;;;20.45;100.00;96371.19;4989722;28;102473;-60
2023/06/01 08:08:40;;;;;;;10.80;8.77;;;;;;;20.80;100.00;96373.66;4989448;28;103215;-60
2023/06/01 08:11:08;;;;;;;9.03;7.50;;;;;;;20.94;100.00;96363.56;4988212;28;101990;-60
2023/06/01 08:13:36;;;;;;;12.43;8.10;;;;;;;20.89;100.00;96371.00;4988740;28;102370;-60
2023/06/01 08:16:03;;;;;;;9.90;7.77;;;;;;;21.35;100.00;96363.88;4987654;28;105571;-60
2023/06/01 08:18:32;;;;;;;10.33;7.20;;;;;;;21.90;100.00;96369.44;4991633;28;102146;-60
2023/06/01 08:21:00;;;;;;;8.23;7.40;;;;;;;21.55;100.00;96363.25;4989117;28;102518;-60
2023/06/01 08:23:27;;;;;;;7.97;7.17;;;;;;;21.49;100.00;96358.31;4989740;28;101830;-60
2023/06/01 08:25:54;;;;;;;9.00;7.47;;;;;;;21.92;100.00;96364.47;4991030;28;102330;-60
2023/06/01 08:28:21;;;;;;;8.97;6.97;;;;;;;22.23;100.00;96362.31;4992444;28;102690;-60
2023/06/01 08:30:48;;;;;;;11.37;7.53;;;;;;;22.14;100.00;96361.53;4992985;28;102016;-60
2023/06/01 08:33:15;;;;;;;9.00;6.13;;;;;;;22.19;100.00;96361.38;4992933;28;101751;-60
2023/06/01 08:35:44;;;;;;;7.00;6.30;;;;;;;22.55;100.00;96362.50;4991049;28;104255;-60
2023/06/01 08:38:11;;;;;;;7.00;5.83;;;;;;;22.38;100.00;96359.03;4993012;28;101780;-60
2023/06/01 08:40:40;;;;;;;11.00;6.90;;;;;;;22.87;100.00;96363.75;4994163;28;105642;-60
2023/06/01 08:43:14;;;;;;;9.00;6.73;;;;;;;23.21;100.00;96355.44;4992681;28;101847;-60
2023/06/01 08:45:42;;;;;;;8.73;7.33;;;;;;;22.84;100.00;96353.59;4993065;28;102216;-60
2023/06/01 08:48:09;;;;;;;9.67;7.00;;;;;;;23.35;100.00;96354.03;4992125;28;102595;-60
2023/06/01 08:50:36;;;;;;;10.07;7.87;;;;;;;23.50;100.00;96355.34;4991464;28;102468;-60
2023/06/01 08:53:05;;;;;;;7.60;6.80;;;;;;;23.37;100.00;96359.16;4992724;28;102549;-60
2023/06/01 08:55:32;;;;;;;9.60;7.13;;;;;;;22.92;95.83;96366.28;4990938;28;105856;-60
2023/06/01 08:57:59;;;;;;;7.80;6.47;;;;;;;23.51;97.83;96354.22;4992583;28;101767;-60
2023/06/01 09:00:28;;;;;;;7.97;6.97;;;;;;;23.82;100.00;96352.63;4992619;28;103021;-60
2023/06/01 09:02:55;;;;;;;9.40;6.50;;;;;;;24.06;100.00;96349.22;4995240;28;103007;-60
2023/06/01 09:05:22;;;;;;;6.40;5.30;;;;;;;24.30;100.00;96349.28;4990984;28;105133;-60
2023/06/01 09:07:49;;;;;;;7.60;5.03;;;;;;;24.71;80.52;96351.78;4990695;28;105329;-60
2023/06/01 09:10:26;;;;;;;7.80;5.40;;;;;;;24.62;81.10;96341.03;4991136;28;101928;-60
2023/06/01 09:12:54;;;;;;;6.33;5.60;;;;;;;24.37;78.43;96341.34;4992203;28;102647;-60
2023/06/01 09:15:21;;;;;;;7.27;5.03;;;;;;;24.85;78.70;96344.09;4991630;28;102624;-60
2023/06/01 09:17:50;;;;;;;6.17;5.33;;;;;;;24.75;74.98;96333.66;4991194;28;102107;-60
2023/06/01 09:20:24;;;;;;;7.50;5.57;;;;;;;24.53;67.86;96331.38;4992206;28;102335;-60
2023/06/01 09:22:51;;;;;;;6.80;6.07;;;;;;;23.82;75.25;96338.28;4995456;28;103079;-60
2023/06/01 09:25:26;;;;;;;6.77;5.80;;;;;;;24.63;89.69;96329.03;4990886;28;103936;-60
2023/06/01 09:27:54;;;;;;;7.67;5.93;;;;;;;25.04;87.89;96323.31;4991370;28;103305;-60
2023/06/01 09:30:23;;;;;;;9.13;6.73;;;;;;;25.24;73.70;96329.72;4992137;28;102078;-60
2023/06/01 09:32:52;;;;;;;7.90;6.27;;;;;;;24.74;78.70;96330.16;4990715;28;105181;-60
2023/06/01 09:35:41;;;;;;;8.83;6.23;;;;;;;25.33;76.53;96331.19;4989786;28;105433;-60
2023/06/01 09:38:08;;;;;;;8.33;5.67;;;;;;;26.04;77.98;96332.03;4991361;28;102017;-60
2023/06/01 09:40:38;;;;;;;6.23;5.57;;;;;;;25.94;73.43;96321.63;4991723;28;102385;-60
2023/06/01 09:43:19;;;;;;;8.47;5.77;;;;;;;26.07;63.78;96319.63;4990199;28;105331;-60
2023/06/01 09:45:46;;;;;;;8.33;5.33;;;;;;;26.06;75.47;96318.06;4994004;28;101776;-60
2023/06/01 09:48:18;;;;;;;9.53;5.20;;;;;;;26.30;67.28;96315.97;4989802;28;104275;-60
2023/06/01 09:50:45;;;;;;;7.43;5.20;;;;;;;26.58;68.67;96315.88;4991944;28;101673;-60
2023/06/01 09:53:12;;;;;;;8.23;5.20;;;;;;;26.77;63.29;96311.28;4991784;28;102313;-60
2023/06/01 09:55:58;;;;;;;7.07;5.27;;;;;;;26.22;68.28;96311.47;4989767;28;105563;-60
2023/06/01 09:58:25;;;;;;;8.03;5.60;;;;;;;24.91;73.42;96305.41;4992002;28;101733;-60
2023/06/01 10:00:52;;;;;;;6.70;5.90;;;;;;;24.47;77.21;96309.06;4991649;28;102953;-60
2023/06/01 10:03:21;;;;;;;8.87;5.63;;;;;;;25.28;80.75;96303.44;4991050;28;103005;-60
2023/06/01 10:05:48;;;;;;;8.70;5.77;;;;;;;24.63;67.29;96299.09;4991580;28;101995;-60
2023/06/01 10:08:16;;;;;;;9.43;5.50;;;;;;;25.71;76.71;96301.53;4993112;28;105726;-60
2023/06/01 10:10:47;;;;;;;6.07;4.90;;;;;;;26.42;57.67;96298.72;4989885;28;101870;-60
2023/06/01 10:13:14;;;;;;;5.93;4.60;;;;;;;27.06;59.03;96296.31;4991418;28;102351;-61
2023/06/01 10:15:41;;;;;;;5.87;4.77;;;;;;;27.27;51.31;96302.25;4990557;28;101926;-60
2023/06/01 10:18:08;;;;;;;5.03;4.47;;;;;;;27.03;48.89;96302.50;4991637;28;101664;-60
2023/06/01 10:20:36;;;;;;;5.50;5.00;;;;;;;26.96;53.56;96299.59;4991439;28;102369;-60
2023/06/01 10:23:04;;;;;;;6.40;4.60;;;;;;;27.48;51.44;96297.25;4989300;28;105445;-60
2023/06/01 10:25:35;;;;;;;5.80;4.77;;;;;;;27.83;46.80;96297.94;4991174;28;102080;-60
2023/06/01 10:28:07;;;;;;;5.33;4.83;;;;;;;27.82;48.60;96285.44;4989565;28;105361;-60
2023/06/01 10:30:34;;;;;;;8.73;5.07;;;;;;;27.14;45.23;96290.66;4994156;28;102678;-60
2023/06/01 10:33:01;;;;;;;5.20;4.50;;;;;;;27.31;47.95;96292.22;4991114;28;102773;-60
2023/06/01 10:35:58;;;;;;;5.60;5.10;;;;;;;27.75;46.42;96280.63;4990573;28;103307;-60
2023/06/01 10:38:26;;;;;;;5.13;4.40;;;;;;;27.32;46.87;96285.59;4930043;28;102126;-60
2023/06/01 10:40:53;;;;;;;5.27;4.70;;;;;;;27.37;47.69;96285.31;4929723;28;102601;-60
2023/06/01 10:43:43;;;;;;;5.60;5.10;;;;;;;26.32;51.29;96274.72;4929327;28;102518;-60
2023/06/01 10:46:40;;;;;;;5.70;5.10;;;;;;;27.06;51.14;96280.75;4930011;28;101858;-60
2023/06/01 10:49:07;;;;;;;5.47;4.67;;;;;;;25.38;47.82;96270.25;4930060;28;103021;-60
2023/06/01 10:51:34;;;;;;;5.70;5.10;;;;;;;26.29;48.33;96273.47;4929017;28;102619;-60
2023/06/01 10:54:31;;;;;;;5.33;4.83;;;;;;;27.12;50.70;96273.03;4932925;28;102254;-60
2023/06/01 10:57:21;;;;;;;6.13;5.50;;;;;;;26.70;46.54;96269.41;4929452;28;102986;-60
2023/06/01 11:00:17;;;;;;;6.07;5.47;;;;;;;26.32;51.15;96263.81;4913152;28;102101;-60
2023/06/01 11:02:49;;;;;;;5.97;4.53;;;;;;;26.85;48.93;96258.44;4921436;28;102478;-60
2023/06/01 11:05:43;;;;;;;5.47;4.67;;;;;;;27.94;51.06;96260.66;4929061;28;102517;-60
2023/06/01 11:08:48;;;;;;;6.33;5.13;;;;;;;28.17;44.91;96253.25;4913132;28;101907;-60
2023/06/01 11:11:16;;;;;;;6.40;4.80;;;;;;;27.76;44.85;96254.84;4929492;28;102361;-60
2023/06/01 11:13:43;;;;;;;5.73;5.20;;;;;;;25.47;49.26;96254.56;4985963;28;102603;-60
2023/06/01 11:16:31;;;;;;;5.57;4.50;;;;;;;26.81;49.74;96248.59;4990136;28;101805;-60
2023/06/01 11:19:02;;;;;;;8.07;5.20;;;;;;;27.61;45.96;96247.53;4992967;28;101977;-60
2023/06/01 11:21:33;;;;;;;6.33;5.10;;;;;;;28.35;46.03;96252.41;4990187;28;101845;-60
2023/06/01 11:24:01;;;;;;;5.00;4.60;;;;;;;27.96;41.85;96241.97;4989030;28;105093;-60
2023/06/01 11:26:32;;;;;;;5.37;4.83;;;;;;;26.99;47.00;96238.84;4989898;28;102654;-60
2023/06/01 11:29:11;;;;;;;7.03;4.70;;;;;;;27.26;52.54;96233.22;4990317;28;101922;-60